• Join FlightAware (Why Join?)
  • Login
  • US Flag 
04:49AM EDT


 

Airport Tracker/Info


-or-


 

Live Flight TrackerFlight Track Log ✈ UAL6057 ✈ 18-Aug-2013 ✈ KORD - KBNA

Flight Track Log - Related Links

Times and Time Zones

All times are in EDT time to prevent confusion due to time zone crossing. See the UAL6057 flight status page for this flight to view local times or setup timezone preferences in your user account.

Time Position Orientation Groundspeed Altitude Reporting Facility
EDT Latitude Longitude Course Direction KTS MPH feet Rate Location/Type
10:29PM 41.9333 -87.9167 186° South 167 192 2,100  Level Chicago TRACON
10:29PM 41.9000 -87.9333 200° South 183 211 3,700 1,500 Climbing Chicago TRACON
10:30PM 41.8717 -87.9400 190° South 183 211 4,300 1,560 Climbing Chicago Center
10:31PM 41.8050 -87.9625 194° South 231 266 6,300 1,860 Climbing Chicago Center
10:32PM 41.7292 -87.9447 170° South 275 316 8,200 1,980 Climbing Chicago Center
10:33PM 41.6514 -87.9289 171° South 282 325 10,400 1,800 Climbing Chicago Center
10:34PM 41.3940 -87.7736 186° South  Level Estimated
10:34PM 41.5714 -87.9111 171° South 289 333 11,900  Level Chicago Center
10:35PM 41.4636 -87.8875 171° South 322 371 13,100 900 Climbing Chicago Center
10:36PM 41.3622 -87.8822 178° South 360 414 13,800 1,020 Climbing Chicago Center
10:37PM 41.2586 -87.8911 184° South 369 425 15,200 1,200 Climbing Chicago Center
10:38PM 41.1547 -87.8892 179° South 372 428 16,300 960 Climbing Chicago Center
10:39PM 41.0497 -87.8858 179° South 377 434 17,200 780 Climbing Chicago Center
10:40PM 40.9428 -87.8814 178° South 383 441 18,000 780 Climbing Chicago Center
10:41PM 40.8336 -87.8781 179° South 391 450 18,900 840 Climbing Chicago Center
10:42PM 40.7233 -87.8747 179° South 398 458 19,800 900 Climbing Chicago Center
10:43PM 40.6100 -87.8722 179° South 406 467 20,800 900 Climbing Chicago Center
10:44PM 40.4961 -87.8686 179° South 411 473 21,700 840 Climbing Chicago Center
10:45PM 40.3803 -87.8658 179° South 417 480 22,600 1,020 Climbing Chicago Center
10:46PM 40.2419 -87.8592 178° South 417 480 23,800 900 Climbing Chicago Center
10:47PM 40.1414 -87.8544 178° South 416 479 24,500 780 Climbing Chicago Center
10:48PM 40.0428 -87.8519 179° South 422 486 25,100 840 Climbing Indianapolis Center
10:49PM 39.9242 -87.8478 178° South 427 491 25,900 720 Climbing Indianapolis Center
10:50PM 39.8039 -87.8425 178° South 432 497 26,600 720 Climbing Indianapolis Center
10:51PM 39.6828 -87.8356 177° South 437 503 27,400 840 Climbing Indianapolis Center
10:52PM 39.5603 -87.8311 178° South 439 505 28,400 900 Climbing Indianapolis Center
10:53PM 39.4422 -87.8258 178° South 433 498 29,300 780 Climbing Indianapolis Center
10:54PM 39.3206 -87.8214 178° South 433 498 30,100 780 Climbing Indianapolis Center
10:55PM 39.1989 -87.8153 178° South 438 504 31,000 780 Climbing Indianapolis Center
10:56PM 39.0767 -87.8094 178° South 439 505 31,800 780 Climbing Indianapolis Center
10:57PM 38.9528 -87.8050 178° South 443 510 32,600 540 Climbing Indianapolis Center
10:58PM 38.8286 -87.7997 178° South 447 514 33,000 180 Climbing Indianapolis Center
10:59PM 38.6992 -87.7944 178° South 464 534 33,000  Level Indianapolis Center
11:00PM 38.5664 -87.7881 178° South 477 549 33,000  Level Indianapolis Center
11:01PM 38.4333 -87.7828 178° South 480 552 33,000  Level Indianapolis Center
11:02PM 38.2750 -87.7756 178° South 475 547 33,000  Level Indianapolis Center
11:03PM 38.1444 -87.7706 178° South 471 542 33,000  Level Indianapolis Center
11:04PM 38.0122 -87.7639 178° South 476 548 33,000  Level Indianapolis Center
11:05PM 37.8878 -87.7250 166° South 472 543 33,000 -360 Level Indianapolis Center
11:06PM 37.7817 -87.6297 145° Southeast 468 539 32,300 -1,440 Descending Indianapolis Center
11:07PM 37.6708 -87.5317 145° Southeast 464 534 30,100 -2,280 Descending Indianapolis Center
11:08PM 37.5636 -87.4347 144° Southeast 468 539 27,800 -2,580 Descending Indianapolis Center
11:09PM 37.4567 -87.3422 146° Southeast 463 533 25,000 -2,400 Descending Indianapolis Center
11:10PM 37.3464 -87.2586 149° Southeast 457 526 23,000 -1,020 Descending Indianapolis Center
11:11PM 37.2250 -87.2186 165° South 449 517 23,000 -960 Level Indianapolis Center
11:12PM 37.1036 -87.1822 167° South 445 512 21,100 -2,280 Descending Indianapolis Center
11:13PM 37.0072 -87.1539 167° South 430 495 19,000 -2,220 Descending Memphis Center
11:14PM 36.9483 -87.1381 168° South 434 499 18,000 -1,440 Descending Memphis Center
11:15PM 36.8369 -87.1036 166° South 415 478 16,700 -1,680 Descending Memphis Center
11:16PM 36.7356 -87.0483 156° South 404 465 14,700 -2,160 Descending Memphis Center
11:17PM 36.6381 -86.9875 153° Southeast 394 453 12,400 -2,160 Descending Memphis Center
11:18PM 36.5428 -86.9294 154° Southeast 368 423 10,400 -1,680 Descending Memphis Center
11:19PM 36.4764 -86.8731 146° Southeast 321 369 9,100 -1,620 Descending Memphis Center
11:20PM 36.4125 -86.8217 147° Southeast 285 328 7,200 -1,920 Descending Memphis Center
11:21PM 36.3483 -86.7678 146° Southeast 280 322 5,300 -1,800 Descending Memphis Center
11:22PM 36.2931 -86.7239 147° Southeast 275 316 3,700 -1,560 Descending Memphis Center
11:23PM 36.2394 -86.6772 145° Southeast 258 297 2,200 -1,020 Descending Memphis Center
11:24PM 36.1994 -86.6611 162° South 190 219 1,700 -600 Descending Memphis Center
11:25PM 36.1622 -86.6706 192° South 135 155 1,100 -480 Descending Memphis Center
11:26PM 36.1247 -86.6747 185° South 135 155 800 -300 Descending Memphis Center